Corpus Christi, TX

2:33 PM CST on December 21, 2014 (GMT -0600)
stony brook subdivision | Change Station
CLOSE
Current Station
Personal Weather Station
Location: Corpus Christi, TX
Elevation: 23 ft
Nearby Weather Stations

Elev 23 ft 27.67 °N, 97.40 °W | Updated 14 minutes ago

Overcast
Overcast
60.4 °F
Feels Like 60.4 °F
N
3.7
Wind Variable Wind from SSE

Today
High -- | Low -- °F
--% Chance of Precip.
Yesterday
High -- | Low -- °F
Precip. -- in
7:16 AM 5:39 PM
Waning Crescent, 0% visible
Pressure 29.97 in
Visibility 10.0 miles
Clouds Few 2600 ft
Overcast 3100 ft
Dew Point 55 °F
Humidity 83%
Rainfall 0.00 in
Snow Depth Not available.
UV 1 out of 12
Pollen 7.70 out of 12
Air Quality Not available.
Flu Activity Not available.
SPECI KCRP 212014Z 10006KT 10SM FEW026 OVC031 16/12 A2997 RMK AO2 T01610122 $

More Conditions Fewer Conditions

Pressure 29.97 in
Visibility 10.0 miles
Clouds Few 2600 ft
Overcast 3100 ft
Dew Point 55 °F
Humidity 83%
Rainfall 0.00 in
Snow Depth Not available.
UV 1 out of 12
Pollen 7.70 out of 12
Air Quality Not available.
Flu Activity Not available.
SPECI KCRP 212014Z 10006KT 10SM FEW026 OVC031 16/12 A2997 RMK AO2 T01610122 $

More Conditions Fewer Conditions

Nowcast | as of 11:56 am CST on December 21, 2014

Through 3 PM...patchy drizzle will continue to affect the coastal Bend...Victoria Crossroads...and middle Texas coastal waters. Most locations will not see more than a trace...though accumulations of a few hundredths of an inch are possible,

×

10-Day Weather Forecast

Almanac

Astronomy

Dec. 21, 2014 Rise Set
Actual Time
Civil Twilight
Nautical Twilight
Astronomical Twilight
Moon
Length of Visible Light
Length of Day
Tomorrow will be .
, % of the Moon is Illuminated

Today's Extremes

State Highs State Lows

Community

WunderPhotos

Upload Photos

1,779,471 photos uploaded!

WunderBlogs® & News

Nearby

Air Quality

  Air Quality AQ Index Pollutant
Not available.

Snow Depth

Station Depth Elevation

Earthquake Activity

City Distance Mag. Time & Date
Minimum magnitude displayed is 2.5.

Coastal Water Temperatures

Place Temperature

Nearby Weather Stations